createdAt,value
2018-03-07T07:14:59.694Z,18.40
2018-03-07T07:17:28.116Z,39.27
2018-03-07T07:19:56.495Z,65.53
2018-03-07T07:22:25.580Z,70.90
2018-03-07T07:24:53.790Z,71.07
2018-03-07T07:27:22.118Z,63.37
2018-03-07T07:29:50.993Z,61.40
2018-03-07T07:32:29.654Z,59.77
2018-03-07T07:38:00.586Z,57.17
2018-03-07T07:43:25.914Z,59.00
2018-03-07T07:46:02.484Z,58.73
2018-03-07T07:48:32.488Z,59.13
2018-03-07T07:51:00.768Z,60.83
2018-03-07T07:53:33.903Z,62.40
2018-03-07T07:56:02.229Z,63.13
2018-03-07T07:58:31.133Z,59.87
2018-03-07T08:00:59.309Z,61.47
2018-03-07T08:03:27.654Z,62.70
2018-03-07T08:05:55.920Z,60.73
2018-03-07T08:08:24.741Z,59.57
2018-03-07T08:10:52.592Z,59.60
2018-03-07T08:13:20.992Z,54.90
2018-03-07T08:15:49.041Z,51.33
2018-03-07T08:18:17.941Z,48.10
2018-03-07T08:20:46.914Z,46.77
2018-03-07T08:23:14.891Z,55.70
2018-03-07T08:25:43.774Z,62.27
2018-03-07T08:28:12.589Z,64.50
2018-03-07T08:30:40.664Z,63.23
2018-03-07T08:33:08.905Z,64.17
2018-03-07T08:35:42.506Z,70.50
2018-03-07T08:38:10.828Z,64.97
2018-03-07T08:40:38.938Z,58.40
2018-03-07T08:43:07.337Z,54.23
2018-03-07T08:45:36.243Z,51.40
2018-03-07T08:48:04.383Z,51.53
2018-03-07T08:50:32.401Z,49.07
2018-03-07T08:53:00.779Z,48.50
2018-03-07T08:55:28.992Z,48.90
2018-03-07T08:57:56.875Z,47.00
2018-03-07T09:00:25.945Z,44.67
2018-03-07T09:02:53.993Z,46.23
2018-03-07T09:05:22.045Z,45.30
2018-03-07T09:07:50.146Z,43.73
2018-03-07T09:10:18.247Z,45.30
2018-03-07T09:12:47.694Z,45.73
2018-03-07T09:15:16.841Z,45.10
2018-03-07T09:17:45.250Z,44.20
2018-03-07T09:20:13.366Z,43.53
2018-03-07T09:22:42.071Z,43.90
2018-03-07T09:25:10.754Z,44.90
2018-03-07T09:27:39.039Z,46.47
2018-03-07T09:30:07.854Z,43.27
2018-03-07T09:32:36.423Z,43.40
2018-03-07T09:35:07.443Z,44.03
2018-03-07T09:37:40.847Z,44.47
2018-03-07T09:40:08.747Z,43.67
2018-03-07T09:42:37.634Z,44.30
2018-03-07T09:45:05.722Z,43.70
2018-03-07T09:47:33.624Z,44.57
2018-03-07T09:50:02.409Z,43.40
2018-03-07T09:52:30.969Z,43.90
2018-03-07T09:54:59.224Z,43.53
2018-03-07T09:57:27.137Z,44.07
2018-03-07T09:59:55.204Z,42.30
2018-03-07T10:02:25.286Z,44.20
2018-03-07T10:04:53.581Z,45.70
2018-03-07T10:07:22.474Z,44.27
2018-03-07T10:09:50.288Z,44.27
2018-03-07T10:12:18.627Z,44.93
2018-03-07T10:14:47.225Z,45.30
2018-03-07T10:17:15.572Z,45.43
2018-03-07T10:19:44.060Z,45.73
2018-03-07T10:22:11.988Z,45.50
2018-03-07T10:24:40.393Z,43.97
2018-03-07T10:27:08.835Z,46.10
2018-03-07T10:29:37.064Z,44.83
2018-03-07T10:32:05.831Z,45.67
2018-03-07T10:34:34.069Z,45.17
2018-03-07T10:37:01.973Z,46.07
2018-03-07T10:39:30.652Z,46.53
2018-03-07T10:41:58.692Z,46.33
2018-03-07T10:44:26.801Z,43.83
2018-03-07T10:46:54.942Z,45.20
2018-03-07T10:49:24.119Z,44.70
2018-03-07T10:54:44.986Z,45.20
2018-03-07T10:57:13.417Z,44.67
2018-03-07T10:59:41.697Z,46.07
2018-03-07T11:02:10.092Z,43.63
2018-03-07T11:04:38.411Z,43.60
2018-03-07T12:02:03.750Z,45.57
2018-03-07T12:07:49.505Z,44.03
2018-03-07T12:19:18.688Z,42.70
2018-03-07T12:35:06.916Z,41.17
2018-03-07T12:38:41.945Z,43.33
2018-03-07T12:44:16.581Z,45.93
2018-03-07T12:46:57.172Z,46.27
2018-03-07T12:49:41.504Z,44.87
2018-03-07T13:03:42.004Z,47.17
2018-03-07T13:06:47.102Z,47.40
2018-03-07T13:09:22.638Z,46.83
2018-03-07T13:12:06.529Z,46.40
2018-03-07T13:14:48.196Z,47.07
2018-03-07T13:23:02.388Z,47.53
2018-03-07T13:52:46.913Z,53.50
2018-03-07T14:00:54.303Z,51.07
2018-03-07T14:03:48.923Z,49.13
2018-03-07T14:15:04.774Z,45.63
2018-03-07T14:17:58.067Z,44.50
2018-03-07T14:54:27.387Z,40.03
2018-03-07T14:57:09.815Z,38.77
2018-03-07T15:00:00.034Z,39.60
2018-03-07T15:11:34.307Z,38.27
2018-03-07T15:20:09.888Z,38.27
2018-03-07T15:49:46.638Z,37.07
